createdAt,value
2022-08-17T00:01:44.934Z,98994.44
2022-08-17T00:04:23.169Z,98989.91
2022-08-17T00:06:53.326Z,98989.16
2022-08-17T00:09:21.271Z,98997.16
2022-08-17T00:14:38.154Z,98997.22
2022-08-17T00:17:07.099Z,98990.03
2022-08-17T00:19:36.463Z,98995.19
2022-08-17T00:22:34.964Z,99007.47
2022-08-17T00:24:54.734Z,98997.09
2022-08-17T00:27:22.800Z,98997.19
2022-08-17T00:29:50.787Z,98982.38
2022-08-17T00:33:22.742Z,98985.00
2022-08-17T00:35:12.144Z,98978.81
2022-08-17T00:37:40.383Z,98986.53
2022-08-17T00:40:09.704Z,98991.72
2022-08-17T00:42:38.269Z,98994.22
2022-08-17T00:45:07.387Z,99001.41
2022-08-17T00:47:35.340Z,98993.66
2022-08-17T00:50:03.470Z,98994.50
2022-08-17T00:52:38.769Z,98985.63
2022-08-17T00:55:08.301Z,98986.75
2022-08-17T00:57:39.190Z,98977.91
2022-08-17T01:00:11.679Z,98978.69
2022-08-17T01:02:44.016Z,98985.59
2022-08-17T01:05:18.433Z,98996.09
2022-08-17T01:07:50.051Z,99002.28
2022-08-17T01:11:00.423Z,98995.09
2022-08-17T01:13:11.675Z,99000.59
2022-08-17T01:15:46.172Z,98997.22
2022-08-17T01:18:15.967Z,98991.19
2022-08-17T01:20:48.908Z,98993.78
2022-08-17T01:23:21.234Z,98996.28
2022-08-17T01:25:51.477Z,99000.75
2022-08-17T01:28:52.449Z,98996.34
2022-08-17T01:31:09.486Z,99000.03
2022-08-17T01:33:37.947Z,98990.28
2022-08-17T01:36:07.517Z,99001.78
2022-08-17T01:38:38.315Z,98999.06
2022-08-17T01:41:10.639Z,99005.25
2022-08-17T01:43:42.946Z,99004.44
2022-08-17T01:46:15.728Z,98999.94
2022-08-17T01:48:47.422Z,99006.97
2022-08-17T01:51:17.268Z,99003.53
2022-08-17T01:53:51.510Z,99002.47
2022-08-17T01:56:23.306Z,99006.13
2022-08-17T01:58:52.425Z,99000.88
2022-08-17T02:01:23.863Z,98998.19
2022-08-17T02:03:54.525Z,99006.91
2022-08-17T02:06:30.331Z,99007.81
2022-08-17T02:09:02.487Z,99005.94
2022-08-17T02:11:33.971Z,99002.41
2022-08-17T02:14:04.111Z,99002.41
2022-08-17T02:16:36.909Z,98999.75
2022-08-17T02:19:08.087Z,98989.25
2022-08-17T02:21:37.446Z,99000.63
2022-08-17T02:24:09.850Z,98992.00
2022-08-17T02:26:37.925Z,99002.44
2022-08-17T02:29:06.180Z,98998.06
2022-08-17T02:31:35.677Z,98998.97
2022-08-17T02:34:05.327Z,98994.66
2022-08-17T02:36:34.969Z,98993.72
2022-08-17T02:39:03.276Z,99001.59
2022-08-17T02:41:33.029Z,99001.63
2022-08-17T02:44:01.212Z,98993.00
2022-08-17T02:46:30.529Z,98978.84
2022-08-17T02:48:58.817Z,98984.28
2022-08-17T02:51:27.262Z,98980.69
2022-08-17T02:54:02.179Z,98984.97
2022-08-17T02:56:44.893Z,98980.47
2022-08-17T02:59:12.852Z,98984.97
2022-08-17T03:01:40.993Z,98985.78
2022-08-17T03:04:09.008Z,98968.31
2022-08-17T03:06:37.499Z,98977.09
2022-08-17T03:09:05.850Z,98978.91
2022-08-17T03:11:33.807Z,98976.31
2022-08-17T03:14:03.186Z,98970.16
2022-08-17T03:16:31.140Z,98962.31
2022-08-17T03:18:59.189Z,98959.59
2022-08-17T03:21:27.176Z,98962.28
2022-08-17T03:23:55.146Z,98961.38
2022-08-17T03:26:23.105Z,98960.53
2022-08-17T03:28:51.089Z,98960.56
2022-08-17T03:31:21.487Z,98955.34
2022-08-17T03:33:49.455Z,98953.56
2022-08-17T03:36:17.554Z,98957.97
2022-08-17T03:38:45.504Z,98951.75
2022-08-17T03:41:14.042Z,98952.69
2022-08-17T03:43:41.974Z,98950.97
2022-08-17T03:46:35.132Z,98946.47
2022-08-17T03:49:24.404Z,98948.19
2022-08-17T03:52:10.296Z,98942.81
2022-08-17T03:54:55.967Z,98936.69
2022-08-17T03:57:24.705Z,98934.03
2022-08-17T03:59:52.902Z,98936.59
2022-08-17T04:02:24.490Z,98934.13
2022-08-17T04:04:54.370Z,98932.41
2022-08-17T04:07:24.425Z,98920.03
2022-08-17T04:09:52.751Z,98918.28
2022-08-17T04:12:23.434Z,98926.16
2022-08-17T04:14:54.766Z,98919.16
2022-08-17T04:17:25.393Z,98917.47
2022-08-17T04:19:56.126Z,98921.94
2022-08-17T04:22:31.730Z,98929.81
2022-08-17T04:25:04.841Z,98921.00
2022-08-17T04:27:32.843Z,98921.84
2022-08-17T04:30:00.830Z,98917.50
2022-08-17T04:33:00.439Z,98924.63
2022-08-17T04:35:22.261Z,98923.78
2022-08-17T04:37:50.333Z,98924.66
2022-08-17T04:40:51.808Z,98923.78
2022-08-17T04:43:21.729Z,98919.41
2022-08-17T04:45:56.412Z,98925.59
2022-08-17T04:48:33.357Z,98922.94
2022-08-17T04:51:09.917Z,98937.03
2022-08-17T04:53:39.143Z,98930.88
2022-08-17T04:56:07.643Z,98930.84
2022-08-17T04:58:40.102Z,98937.88
2022-08-17T05:01:08.597Z,98941.47
2022-08-17T05:03:36.760Z,98939.72
2022-08-17T05:06:06.696Z,98940.59
2022-08-17T05:08:34.745Z,98943.22
2022-08-17T05:11:02.834Z,98947.63
2022-08-17T05:13:31.190Z,98947.66
2022-08-17T05:16:03.032Z,98949.38
2022-08-17T05:18:32.170Z,98956.41
2022-08-17T05:21:01.317Z,98954.66
2022-08-17T05:23:41.799Z,98959.06
2022-08-17T05:26:25.804Z,98958.19
2022-08-17T05:28:59.471Z,98962.56
2022-08-17T05:31:29.496Z,98959.91
2022-08-17T05:33:57.755Z,98972.25
2022-08-17T05:36:42.445Z,98967.84
2022-08-17T05:39:16.624Z,98973.13
2022-08-17T05:41:46.410Z,98982.78
2022-08-17T05:44:14.420Z,98982.78
2022-08-17T05:46:46.656Z,98988.06
2022-08-17T05:49:18.778Z,98986.31
2022-08-17T05:52:14.096Z,98999.47
2022-08-17T05:55:04.251Z,99004.78
2022-08-17T05:57:43.527Z,98996.88
2022-08-17T06:00:30.246Z,98999.50
2022-08-17T06:03:26.540Z,99003.88
2022-08-17T06:06:05.249Z,98997.66
2022-08-17T06:08:39.728Z,99006.47
2022-08-17T06:11:19.854Z,99007.16
2022-08-17T06:14:17.221Z,99009.94
2022-08-17T06:16:50.543Z,99031.59
2022-08-17T06:19:23.886Z,99035.53
2022-08-17T06:21:55.260Z,99030.53
2022-08-17T06:24:29.935Z,99039.41
2022-08-17T06:27:09.040Z,99040.50
2022-08-17T06:29:47.003Z,99032.03
2022-08-17T06:32:15.339Z,99035.81
2022-08-17T06:34:44.781Z,99037.38
2022-08-17T06:37:31.159Z,99044.19
2022-08-17T06:40:07.437Z,99049.38
2022-08-17T06:42:59.946Z,99047.00
2022-08-17T06:45:39.049Z,99039.09
2022-08-17T06:48:14.171Z,99037.22
2022-08-17T06:50:49.094Z,99043.44
2022-08-17T06:53:25.796Z,99043.25
2022-08-17T06:55:59.933Z,99046.59
2022-08-17T06:58:33.281Z,99052.50
2022-08-17T07:01:07.060Z,99040.91
2022-08-17T07:03:40.806Z,99048.38
2022-08-17T07:06:14.157Z,99052.88
2022-08-17T07:08:59.054Z,99056.59
2022-08-17T07:11:31.751Z,99055.72
2022-08-17T07:14:15.180Z,99061.66
2022-08-17T07:16:48.524Z,99061.91
2022-08-17T07:19:18.201Z,99061.53
2022-08-17T07:21:55.020Z,99052.72
2022-08-17T07:24:41.535Z,99051.03
2022-08-17T07:27:15.013Z,99050.84
2022-08-17T07:29:49.491Z,99055.16
2022-08-17T07:32:21.827Z,99049.47
2022-08-17T07:35:16.380Z,99048.31
2022-08-17T07:37:48.654Z,99051.84
2022-08-17T07:40:27.647Z,99045.41
2022-08-17T07:43:04.914Z,99064.78
2022-08-17T07:45:53.085Z,99054.00
2022-08-17T07:48:23.215Z,99057.59
2022-08-17T07:50:53.411Z,99055.81
2022-08-17T07:53:25.149Z,99051.75
2022-08-17T07:55:55.861Z,99061.19
2022-08-17T07:58:26.554Z,99066.63
2022-08-17T08:01:08.979Z,99064.50
2022-08-17T08:03:43.713Z,99070.50
2022-08-17T08:06:21.557Z,99063.03
2022-08-17T08:08:53.125Z,99062.53
2022-08-17T08:11:31.367Z,99071.38
2022-08-17T08:14:21.837Z,99072.66
2022-08-17T08:17:03.342Z,99069.31
2022-08-17T08:19:32.485Z,99084.84
2022-08-17T08:22:06.823Z,99085.44
2022-08-17T08:24:53.502Z,99084.28
2022-08-17T08:27:36.842Z,99086.50
2022-08-17T08:30:09.925Z,99078.50
2022-08-17T08:32:54.356Z,99082.31
2022-08-17T08:35:32.484Z,99088.28
2022-08-17T08:38:09.425Z,99084.59
2022-08-17T08:40:57.450Z,99087.03
2022-08-17T08:43:38.796Z,99089.06
2022-08-17T08:46:19.800Z,99092.31
2022-08-17T08:50:01.247Z,99093.47
2022-08-17T08:52:49.537Z,99106.41
2022-08-17T08:55:27.003Z,99113.97
2022-08-17T08:58:01.310Z,99109.44
2022-08-17T09:00:35.827Z,99114.75
2022-08-17T09:03:28.078Z,99118.13
2022-08-17T09:06:37.915Z,99113.97
2022-08-17T09:09:18.965Z,99119.53
2022-08-17T09:12:02.931Z,99112.78
2022-08-17T09:14:44.945Z,99118.88
2022-08-17T09:17:19.241Z,99119.22
2022-08-17T09:19:54.043Z,99117.97
2022-08-17T09:22:37.298Z,99126.38
2022-08-17T09:25:10.517Z,99121.59
2022-08-17T09:27:52.513Z,99122.50
2022-08-17T09:30:21.026Z,99129.09
2022-08-17T09:32:56.918Z,99125.19
2022-08-17T09:35:32.963Z,99128.97
2022-08-17T09:38:20.746Z,99133.84
2022-08-17T09:40:53.929Z,99132.09
2022-08-17T09:43:33.745Z,99146.31
2022-08-17T09:46:05.444Z,99127.03
2022-08-17T09:48:40.132Z,99138.97
2022-08-17T09:51:14.977Z,99137.63
2022-08-17T09:53:44.824Z,99141.19
2022-08-17T09:56:29.960Z,99150.16
2022-08-17T09:59:20.965Z,99148.78
2022-08-17T10:02:01.293Z,99145.09
2022-08-17T10:04:44.238Z,99143.44
2022-08-17T10:07:18.958Z,99142.56
2022-08-17T10:10:01.083Z,99138.09
2022-08-17T10:12:38.549Z,99136.97
2022-08-17T10:15:23.533Z,99138.72
2022-08-17T10:18:08.846Z,99143.88
2022-08-17T10:20:46.019Z,99135.91
2022-08-17T10:23:35.520Z,99140.22
2022-08-17T10:26:15.741Z,99140.03
2022-08-17T10:28:50.790Z,99134.56
2022-08-17T10:31:34.804Z,99139.28
2022-08-17T10:34:36.211Z,99144.13
2022-08-17T10:37:29.393Z,99143.44
2022-08-17T10:40:08.695Z,99137.13
2022-08-17T10:42:46.870Z,99139.50
2022-08-17T10:45:20.751Z,99141.34
2022-08-17T10:48:05.130Z,99142.72
2022-08-17T10:51:00.227Z,99146.00
2022-08-17T10:53:54.198Z,99139.44
2022-08-17T10:56:25.984Z,99140.13
2022-08-17T10:58:57.646Z,99139.38
2022-08-17T11:02:01.174Z,99134.09
2022-08-17T11:04:47.916Z,99136.66
2022-08-17T11:07:27.986Z,99132.28
2022-08-17T11:10:18.248Z,99135.53
2022-08-17T11:12:54.494Z,99131.03
2022-08-17T11:15:41.435Z,99138.91
2022-08-17T11:18:32.582Z,99132.50
2022-08-17T11:21:30.221Z,99128.69
2022-08-17T11:24:14.664Z,99133.91
2022-08-17T11:26:47.681Z,99137.19
2022-08-17T11:29:24.809Z,99132.56
2022-08-17T11:32:06.225Z,99131.81
2022-08-17T11:34:37.251Z,99125.69
2022-08-17T11:37:34.053Z,99132.63
2022-08-17T11:40:16.769Z,99135.34
2022-08-17T11:42:58.845Z,99140.56
2022-08-17T11:45:48.236Z,99135.47
2022-08-17T11:48:44.637Z,99144.56
2022-08-17T11:51:34.583Z,99142.63
2022-08-17T11:54:32.939Z,99138.13
2022-08-17T11:56:56.773Z,99145.19
2022-08-17T11:59:59.065Z,99143.25
2022-08-17T12:02:47.481Z,99143.16
2022-08-17T12:05:41.984Z,99136.69
2022-08-17T12:08:17.810Z,99131.88
2022-08-17T12:10:59.214Z,99136.22
2022-08-17T12:13:39.433Z,99141.06
2022-08-17T12:16:10.055Z,99134.47
2022-08-17T12:18:42.206Z,99142.00
2022-08-17T12:21:32.564Z,99133.09
2022-08-17T12:24:07.571Z,99140.69
2022-08-17T12:26:37.752Z,99133.47
2022-08-17T12:29:18.083Z,99140.38
2022-08-17T12:32:02.160Z,99137.47
2022-08-17T12:34:37.679Z,99128.31
2022-08-17T12:37:15.224Z,99132.94
2022-08-17T12:39:52.687Z,99131.06
2022-08-17T12:42:29.332Z,99127.34
2022-08-17T12:44:57.352Z,99131.03
2022-08-17T12:47:25.877Z,99127.44
2022-08-17T12:50:08.403Z,99133.75
2022-08-17T12:53:01.927Z,99141.69
2022-08-17T12:55:33.832Z,99139.63
2022-08-17T12:58:02.802Z,99128.88
2022-08-17T13:00:33.560Z,99130.97
2022-08-17T13:03:03.534Z,99135.00
2022-08-17T13:05:35.784Z,99128.41
2022-08-17T13:08:15.302Z,99139.31
2022-08-17T13:10:43.947Z,99141.69
2022-08-17T13:13:22.145Z,99135.19
2022-08-17T13:15:54.681Z,99138.34
2022-08-17T13:18:40.070Z,99144.81
2022-08-17T13:21:18.200Z,99149.00
2022-08-17T13:23:57.623Z,99138.53
2022-08-17T13:26:30.785Z,99139.91
2022-08-17T13:28:59.695Z,99143.75
2022-08-17T13:31:51.892Z,99148.16
2022-08-17T13:34:34.424Z,99157.03
2022-08-17T13:37:36.284Z,99159.69
2022-08-17T13:40:30.597Z,99158.41
2022-08-17T13:42:59.333Z,99160.28
2022-08-17T13:45:53.278Z,99154.53
2022-08-17T13:48:25.835Z,99159.69
2022-08-17T13:51:29.129Z,99155.69
2022-08-17T13:54:07.454Z,99164.69
2022-08-17T13:56:47.829Z,99160.59
2022-08-17T13:59:36.390Z,99162.72
2022-08-17T14:02:15.512Z,99157.38
2022-08-17T14:04:45.604Z,99163.78
2022-08-17T14:07:39.261Z,99167.16
2022-08-17T14:10:13.196Z,99164.91
2022-08-17T14:12:44.707Z,99164.56
2022-08-17T14:15:15.690Z,99161.56
2022-08-17T14:17:43.680Z,99174.03
2022-08-17T14:20:13.812Z,99175.47
2022-08-17T14:22:45.647Z,99172.56
2022-08-17T14:25:15.874Z,99178.31
2022-08-17T14:27:52.668Z,99185.66
2022-08-17T14:30:24.699Z,99185.09
2022-08-17T14:32:53.547Z,99189.97
2022-08-17T14:35:24.075Z,99183.44
2022-08-17T14:37:52.643Z,99179.75
2022-08-17T14:40:25.092Z,99182.13
2022-08-17T14:42:56.693Z,99176.44
2022-08-17T14:45:29.628Z,99179.75
2022-08-17T14:48:00.681Z,99189.19
2022-08-17T14:50:28.642Z,99181.47
2022-08-17T14:52:58.055Z,99185.66
2022-08-17T14:55:27.215Z,99186.09
2022-08-17T14:57:56.554Z,99189.50
2022-08-17T15:00:25.450Z,99185.28
2022-08-17T15:02:56.121Z,99201.53
2022-08-17T15:05:26.693Z,99196.25
2022-08-17T15:07:55.849Z,99194.47
2022-08-17T15:10:25.870Z,99204.25
2022-08-17T15:12:54.497Z,99200.19
2022-08-17T15:15:23.978Z,99205.94
2022-08-17T15:17:52.424Z,99203.22
2022-08-17T15:20:22.857Z,99203.41
2022-08-17T15:22:55.093Z,99205.78
2022-08-17T15:25:24.809Z,99196.34
2022-08-17T15:27:53.757Z,99197.75
2022-08-17T15:30:23.723Z,99200.63
2022-08-17T15:32:54.922Z,99205.13
2022-08-17T15:35:27.965Z,99191.91
2022-08-17T15:37:58.540Z,99194.16
2022-08-17T15:40:26.755Z,99198.13
2022-08-17T15:42:54.948Z,99197.31
2022-08-17T15:45:27.001Z,99199.19
2022-08-17T15:47:55.328Z,99191.47
2022-08-17T15:50:23.486Z,99188.69
2022-08-17T15:52:57.437Z,99191.66
2022-08-17T15:55:26.437Z,99186.41
2022-08-17T15:57:54.422Z,99190.06
2022-08-17T16:00:26.048Z,99195.84
2022-08-17T16:03:14.923Z,99189.31
2022-08-17T16:05:42.578Z,99201.09
2022-08-17T16:08:11.120Z,99202.44
2022-08-17T16:10:39.268Z,99194.22
2022-08-17T16:13:17.642Z,99202.91
2022-08-17T16:15:56.213Z,99206.13
2022-08-17T16:18:30.890Z,99203.84
2022-08-17T16:21:19.439Z,99203.09
2022-08-17T16:23:47.650Z,99203.34
2022-08-17T16:26:16.037Z,99212.97
2022-08-17T16:28:44.094Z,99209.72
2022-08-17T16:31:14.437Z,99212.78
2022-08-17T16:33:43.040Z,99207.94
2022-08-17T16:36:31.185Z,99201.56
2022-08-17T16:39:00.750Z,99202.75
2022-08-17T16:41:46.844Z,99203.19
2022-08-17T16:44:16.551Z,99207.38
2022-08-17T16:46:47.509Z,99212.19
2022-08-17T16:49:24.492Z,99200.78
2022-08-17T16:52:09.841Z,99207.63
2022-08-17T16:54:39.321Z,99206.69
2022-08-17T16:57:07.336Z,99200.78
2022-08-17T16:59:41.969Z,99208.31
2022-08-17T17:02:17.268Z,99202.75
2022-08-17T17:04:52.013Z,99195.84
2022-08-17T17:07:35.125Z,99194.22
2022-08-17T17:10:08.959Z,99195.22
2022-08-17T17:13:03.852Z,99198.66
2022-08-17T17:15:40.503Z,99197.19
2022-08-17T17:18:14.801Z,99203.13
2022-08-17T17:20:49.325Z,99203.88
2022-08-17T17:23:42.246Z,99203.78
2022-08-17T17:26:27.254Z,99205.81
2022-08-17T17:29:20.401Z,99208.13
2022-08-17T17:31:56.400Z,99205.03
2022-08-17T17:34:30.669Z,99215.03
2022-08-17T17:37:04.134Z,99209.22
2022-08-17T17:39:41.544Z,99208.25
2022-08-17T17:42:16.645Z,99211.06
2022-08-17T17:44:51.525Z,99205.50
2022-08-17T17:47:19.467Z,99220.69
2022-08-17T17:49:49.628Z,99220.72
2022-08-17T17:52:27.212Z,99237.88
2022-08-17T17:55:07.389Z,99243.53
2022-08-17T17:57:51.100Z,99254.66
2022-08-17T18:00:24.317Z,99257.72
2022-08-17T18:03:13.617Z,99272.09
2022-08-17T18:05:57.440Z,99284.78
2022-08-17T18:08:44.317Z,99295.84
2022-08-17T18:11:24.634Z,99295.25
2022-08-17T18:14:11.839Z,99302.22
2022-08-17T18:16:42.900Z,99311.06
2022-08-17T18:19:14.464Z,99308.59
2022-08-17T18:21:48.779Z,99312.44
2022-08-17T18:24:29.078Z,99313.25
2022-08-17T18:26:59.328Z,99322.81
2022-08-17T18:29:38.787Z,99315.72
2022-08-17T18:32:35.316Z,99323.72
2022-08-17T18:35:27.988Z,99333.50
2022-08-17T18:38:20.453Z,99341.63
2022-08-17T18:41:00.044Z,99355.75
2022-08-17T18:43:44.181Z,99354.00
2022-08-17T18:46:30.227Z,99352.25
2022-08-17T18:49:01.266Z,99368.13
2022-08-17T18:51:41.537Z,99369.00
2022-08-17T18:54:23.314Z,99371.59
2022-08-17T18:56:56.947Z,99371.47
2022-08-17T18:59:30.597Z,99377.56
2022-08-17T19:02:09.983Z,99373.13
2022-08-17T19:04:44.511Z,99372.47
2022-08-17T19:07:27.111Z,99371.66
2022-08-17T19:10:07.089Z,99377.84
2022-08-17T19:12:43.130Z,99379.63
2022-08-17T19:15:14.841Z,99388.50
2022-08-17T19:17:48.949Z,99391.13
2022-08-17T19:20:20.774Z,99397.31
2022-08-17T19:23:01.529Z,99409.75
2022-08-17T19:25:34.967Z,99413.28
2022-08-17T19:28:21.581Z,99414.19
2022-08-17T19:30:55.867Z,99414.13
2022-08-17T19:33:24.189Z,99431.78
2022-08-17T19:36:02.141Z,99430.03
2022-08-17T19:38:42.537Z,99439.78
2022-08-17T19:41:20.533Z,99430.94
2022-08-17T19:44:32.275Z,99434.44
2022-08-17T19:47:10.486Z,99436.19
2022-08-17T19:49:50.372Z,99440.66
2022-08-17T19:52:33.460Z,99444.16
2022-08-17T19:55:07.444Z,99445.91
2022-08-17T19:57:45.121Z,99452.94
2022-08-17T20:00:16.206Z,99452.06
2022-08-17T20:03:05.903Z,99455.56
2022-08-17T20:06:08.586Z,99462.69
2022-08-17T20:08:28.592Z,99458.25
2022-08-17T20:11:00.603Z,99465.31
2022-08-17T20:13:36.345Z,99470.63
2022-08-17T20:16:21.444Z,99477.69
2022-08-17T20:18:55.486Z,99483.88
2022-08-17T20:21:32.043Z,99474.16
2022-08-17T20:24:05.787Z,99486.50
2022-08-17T20:26:55.180Z,99482.09
2022-08-17T20:29:40.267Z,99483.91
2022-08-17T20:32:25.492Z,99484.75
2022-08-17T20:35:06.532Z,99479.44
2022-08-17T20:37:36.332Z,99479.47
2022-08-17T20:40:24.347Z,99480.34
2022-08-17T20:42:52.764Z,99480.34
2022-08-17T20:46:04.075Z,99480.34
2022-08-17T20:48:39.850Z,99475.03
2022-08-17T20:51:27.329Z,99479.47
2022-08-17T20:54:08.598Z,99479.47
2022-08-17T20:56:53.788Z,99486.53
2022-08-17T20:59:57.084Z,99488.28
2022-08-17T21:02:28.880Z,99490.06
2022-08-17T21:05:07.306Z,99490.06
2022-08-17T21:08:14.226Z,99488.31
2022-08-17T21:10:45.660Z,99499.78
2022-08-17T21:13:45.418Z,99501.53
2022-08-17T21:16:37.246Z,99495.38
2022-08-17T21:19:23.032Z,99494.47
2022-08-17T21:22:04.376Z,99492.66
2022-08-17T21:24:47.671Z,99489.13
2022-08-17T21:27:30.093Z,99499.72
2022-08-17T21:30:21.947Z,99498.84
2022-08-17T21:33:18.357Z,99496.16
2022-08-17T21:35:53.048Z,99498.78
2022-08-17T21:38:36.484Z,99499.69
2022-08-17T21:41:05.069Z,99506.72
2022-08-17T21:43:36.659Z,99504.97
2022-08-17T21:46:09.724Z,99515.50
2022-08-17T21:48:44.347Z,99502.34
2022-08-17T21:51:23.872Z,99503.22
2022-08-17T21:53:54.108Z,99497.06
2022-08-17T21:56:26.923Z,99502.38
2022-08-17T21:58:59.649Z,99496.22
2022-08-17T22:01:31.358Z,99482.09
2022-08-17T22:04:04.481Z,99486.50
2022-08-17T22:06:38.663Z,99475.91
2022-08-17T22:09:16.408Z,99482.94
2022-08-17T22:11:55.194Z,99475.00
2022-08-17T22:14:26.248Z,99472.28
2022-08-17T22:17:25.066Z,99474.06
2022-08-17T22:19:56.428Z,99485.41
2022-08-17T22:22:30.032Z,99473.94
2022-08-17T22:25:01.765Z,99473.03
2022-08-17T22:27:49.908Z,99466.94
2022-08-17T22:30:26.390Z,99470.44
2022-08-17T22:32:55.492Z,99468.66
2022-08-17T22:35:32.798Z,99478.31
2022-08-17T22:38:31.313Z,99480.00
2022-08-17T22:41:17.053Z,99477.44
2022-08-17T22:43:45.448Z,99472.06
2022-08-17T22:46:14.996Z,99476.50
2022-08-17T22:48:50.343Z,99474.72
2022-08-17T22:51:22.390Z,99475.63
2022-08-17T22:54:08.018Z,99479.13
2022-08-17T22:56:54.200Z,99477.38
2022-08-17T22:59:48.680Z,99482.72
2022-08-17T23:02:20.954Z,99485.31
2022-08-17T23:04:52.854Z,99480.06
2022-08-17T23:07:21.911Z,99484.53
2022-08-17T23:09:53.068Z,99486.38
2022-08-17T23:12:26.459Z,99477.50
2022-08-17T23:15:00.678Z,99486.38
2022-08-17T23:17:33.915Z,99483.81
2022-08-17T23:20:06.281Z,99484.66
2022-08-17T23:22:34.593Z,99488.22
2022-08-17T23:25:04.073Z,99483.81
2022-08-17T23:27:32.102Z,99477.66
2022-08-17T23:30:00.112Z,99471.47
2022-08-17T23:32:28.605Z,99468.84
2022-08-17T23:34:59.167Z,99468.88
2022-08-17T23:37:28.457Z,99465.31
2022-08-17T23:39:56.476Z,99465.31
2022-08-17T23:42:25.795Z,99471.47
2022-08-17T23:44:53.751Z,99475.88
2022-08-17T23:47:21.701Z,99475.03
2022-08-17T23:49:49.741Z,99477.63
2022-08-17T23:52:22.741Z,99475.00
2022-08-17T23:54:50.929Z,99474.13
2022-08-17T23:57:33.913Z,99473.25
